PWSweather.com
Personal Weather Stations
Station Observations

YeovilGB

Lat: 50.949, Lon: -2.627

Elevation: 70

Station Type: Vantage Pro

http://www.yeovil-weather.me.uk/

High Low Average
Temperature 74.9°F23.8°C 51.3°F10.7°C 63.5°F17.5°C
Dew Point 57.3°F14.1°C 48.0°F8.9°C 53.1°F11.7°C
Winds 8.1 mph 13.0 kmh Calm Calm 3.0 mph WSW4.8 kmh WSW
Wind Gusts 11.5 mph18.5 kmh -- 5.0 mph8.0 kmh
Humidity 90% 45% 71%
Pressure 30.16 in1021.3 mb 29.98 in1015.2 mb -
Precipitation 0.00 in0.0 mm - -
Hour Temp Dew Point Humidity Winds Wind Gusts Pressure Precip Precip Rate Daily Precip Total
12:00 AM 56.8°F13.8°C 53.3°F11.8°C 88% 2.3 mph WNW3.7 kmh WNW 4.6 mph7.4 kmh 29.99 in1015.6 mb - 0.00 in0.0 mm 0.00 in0.0 mm
12:10 AM 56.7°F13.7°C 53.5°F11.9°C 89% 2.3 mph NW3.7 kmh NW 5.8 mph9.3 kmh 29.98 in1015.2 mb - 0.00 in0.0 mm 0.00 in0.0 mm
12:20 AM 56.6°F13.7°C 53.4°F11.9°C 89% 3.5 mph NW5.6 kmh NW 5.8 mph9.3 kmh 29.99 in1015.6 mb - 0.00 in0.0 mm 0.00 in0.0 mm
12:30 AM 56.5°F13.6°C 53.0°F11.7°C 88% 2.3 mph NW3.7 kmh NW 4.6 mph7.4 kmh 29.99 in1015.6 mb - 0.00 in0.0 mm 0.00 in0.0 mm
12:40 AM 56.4°F13.6°C 53.2°F11.8°C 89% 1.2 mph NW1.9 kmh NW 3.5 mph5.6 kmh 29.99 in1015.6 mb - 0.00 in0.0 mm 0.00 in0.0 mm
12:50 AM 56.3°F13.5°C 52.8°F11.6°C 88% Calm Calm -- 29.99 in1015.6 mb - 0.00 in0.0 mm 0.00 in0.0 mm
01:00 AM 56.1°F13.4°C 52.6°F11.4°C 88% Calm Calm -- 29.99 in1015.6 mb - 0.00 in0.0 mm 0.00 in0.0 mm
01:10 AM 55.9°F13.3°C 52.7°F11.5°C 89% Calm Calm 2.3 mph3.7 kmh 29.99 in1015.6 mb - 0.00 in0.0 mm 0.00 in0.0 mm
01:20 AM 55.8°F13.2°C 52.3°F11.3°C 88% 1.2 mph NW1.9 kmh NW 2.3 mph3.7 kmh 29.99 in1015.6 mb - 0.00 in0.0 mm 0.00 in0.0 mm
01:30 AM 55.7°F13.2°C 52.5°F11.4°C 89% 1.2 mph NW1.9 kmh NW 3.5 mph5.6 kmh 30.00 in1015.9 mb - 0.00 in0.0 mm 0.00 in0.0 mm
01:40 AM 55.7°F13.2°C 52.5°F11.4°C 89% 3.5 mph NW5.6 kmh NW 5.8 mph9.3 kmh 29.99 in1015.6 mb - 0.00 in0.0 mm 0.00 in0.0 mm
01:50 AM 55.6°F13.1°C 52.1°F11.2°C 88% 2.3 mph NNW3.7 kmh NNW 4.6 mph7.4 kmh 30.00 in1015.9 mb - 0.00 in0.0 mm 0.00 in0.0 mm
02:00 AM 55.4°F13.0°C 51.9°F11.1°C 88% 2.3 mph NNW3.7 kmh NNW 4.6 mph7.4 kmh 30.00 in1015.9 mb - 0.00 in0.0 mm 0.00 in0.0 mm
02:10 AM 55.0°F12.8°C 51.2°F10.7°C 87% 3.5 mph NW5.6 kmh NW 4.6 mph7.4 kmh 30.00 in1015.9 mb - 0.00 in0.0 mm 0.00 in0.0 mm
02:20 AM 54.8°F12.7°C 51.0°F10.6°C 87% 2.3 mph NW3.7 kmh NW 5.8 mph9.3 kmh 30.00 in1015.9 mb - 0.00 in0.0 mm 0.00 in0.0 mm
02:30 AM 54.4°F12.4°C 50.3°F10.2°C 86% 2.3 mph NW3.7 kmh NW 5.8 mph9.3 kmh 29.99 in1015.6 mb - 0.00 in0.0 mm 0.00 in0.0 mm
02:40 AM 54.2°F12.3°C 50.4°F10.2°C 87% 2.3 mph NW3.7 kmh NW 3.5 mph5.6 kmh 29.99 in1015.6 mb - 0.00 in0.0 mm 0.00 in0.0 mm
02:50 AM 54.0°F12.2°C 50.2°F10.1°C 87% 1.2 mph NW1.9 kmh NW 2.3 mph3.7 kmh 29.99 in1015.6 mb - 0.00 in0.0 mm 0.00 in0.0 mm
03:00 AM 53.8°F12.1°C 50.4°F10.2°C 88% 1.2 mph NW1.9 kmh NW 3.5 mph5.6 kmh 29.99 in1015.6 mb - 0.00 in0.0 mm 0.00 in0.0 mm
03:10 AM 53.6°F12.0°C 50.2°F10.1°C 88% 2.3 mph NW3.7 kmh NW 5.8 mph9.3 kmh 30.00 in1015.9 mb - 0.00 in0.0 mm 0.00 in0.0 mm
03:20 AM 53.5°F11.9°C 49.7°F9.8°C 87% 2.3 mph NW3.7 kmh NW 4.6 mph7.4 kmh 29.99 in1015.6 mb - 0.00 in0.0 mm 0.00 in0.0 mm
03:30 AM 53.3°F11.8°C 49.5°F9.7°C 87% 1.2 mph NW1.9 kmh NW 1.2 mph1.9 kmh 29.99 in1015.6 mb - 0.00 in0.0 mm 0.00 in0.0 mm
03:40 AM 53.2°F11.8°C 49.4°F9.7°C 87% Calm Calm -- 29.99 in1015.6 mb - 0.00 in0.0 mm 0.00 in0.0 mm
03:50 AM 53.0°F11.7°C 49.3°F9.6°C 87% Calm Calm -- 30.00 in1015.9 mb - 0.00 in0.0 mm 0.00 in0.0 mm
04:00 AM 52.7°F11.5°C 48.9°F9.4°C 87% Calm Calm -- 30.00 in1015.9 mb - 0.00 in0.0 mm 0.00 in0.0 mm
04:10 AM 52.3°F11.3°C 48.5°F9.2°C 87% Calm Calm -- 30.00 in1015.9 mb - 0.00 in0.0 mm 0.00 in0.0 mm
04:20 AM 52.0°F11.1°C 48.6°F9.2°C 88% Calm Calm -- 30.00 in1015.9 mb - 0.00 in0.0 mm 0.00 in0.0 mm
04:30 AM 51.6°F10.9°C 48.2°F9.0°C 88% Calm Calm -- 30.00 in1015.9 mb - 0.00 in0.0 mm 0.00 in0.0 mm
04:40 AM 51.4°F10.8°C 48.0°F8.9°C 88% Calm Calm -- 30.00 in1015.9 mb - 0.00 in0.0 mm 0.00 in0.0 mm
04:50 AM 51.3°F10.7°C 48.2°F9.0°C 89% Calm Calm 3.5 mph5.6 kmh 30.00 in1015.9 mb - 0.00 in0.0 mm 0.00 in0.0 mm
05:00 AM 51.7°F10.9°C 48.8°F9.3°C 90% Calm Calm 3.5 mph5.6 kmh 30.01 in1016.3 mb - 0.00 in0.0 mm 0.00 in0.0 mm
05:10 AM 52.0°F11.1°C 49.2°F9.6°C 90% Calm Calm -- 30.01 in1016.3 mb - 0.00 in0.0 mm 0.00 in0.0 mm
05:20 AM 52.4°F11.3°C 49.6°F9.8°C 90% 1.2 mph NW1.9 kmh NW 3.5 mph5.6 kmh 30.01 in1016.3 mb - 0.00 in0.0 mm 0.00 in0.0 mm
05:30 AM 53.0°F11.7°C 49.8°F9.9°C 89% Calm Calm -- 30.01 in1016.3 mb - 0.00 in0.0 mm 0.00 in0.0 mm
05:40 AM 53.5°F11.9°C 50.4°F10.2°C 89% Calm Calm 3.5 mph5.6 kmh 30.02 in1016.6 mb - 0.00 in0.0 mm 0.00 in0.0 mm
05:50 AM 54.1°F12.3°C 50.6°F10.3°C 88% 1.2 mph NW1.9 kmh NW 2.3 mph3.7 kmh 30.01 in1016.3 mb - 0.00 in0.0 mm 0.00 in0.0 mm
06:00 AM 54.8°F12.7°C 51.0°F10.6°C 87% Calm Calm 3.5 mph5.6 kmh 30.01 in1016.3 mb - 0.00 in0.0 mm 0.00 in0.0 mm
06:10 AM 55.3°F12.9°C 51.5°F10.8°C 87% 1.2 mph NNW1.9 kmh NNW 3.5 mph5.6 kmh 30.02 in1016.6 mb - 0.00 in0.0 mm 0.00 in0.0 mm
06:20 AM 55.7°F13.2°C 51.6°F10.9°C 86% 1.2 mph NW1.9 kmh NW 4.6 mph7.4 kmh 30.02 in1016.6 mb - 0.00 in0.0 mm 0.00 in0.0 mm
06:30 AM 56.2°F13.4°C 52.0°F11.1°C 86% Calm Calm -- 30.02 in1016.6 mb - 0.00 in0.0 mm 0.00 in0.0 mm
06:40 AM 56.6°F13.7°C 52.4°F11.3°C 86% 1.2 mph N1.9 kmh N -- 30.02 in1016.6 mb - 0.00 in0.0 mm 0.00 in0.0 mm
06:50 AM 57.1°F13.9°C 52.9°F11.6°C 86% Calm Calm -- 30.02 in1016.6 mb - 0.00 in0.0 mm 0.00 in0.0 mm
07:00 AM 57.6°F14.2°C 53.1°F11.7°C 85% 1.2 mph NW1.9 kmh NW 3.5 mph5.6 kmh 30.03 in1016.9 mb - 0.00 in0.0 mm 0.00 in0.0 mm
07:10 AM 58.0°F14.4°C 53.2°F11.8°C 84% 3.5 mph NNW5.6 kmh NNW 5.8 mph9.3 kmh 30.03 in1016.9 mb - 0.00 in0.0 mm 0.00 in0.0 mm
07:20 AM 58.2°F14.6°C 53.1°F11.7°C 83% 2.3 mph NW3.7 kmh NW 4.6 mph7.4 kmh 30.03 in1016.9 mb - 0.00 in0.0 mm 0.00 in0.0 mm
07:30 AM 59.0°F15.0°C 53.8°F12.1°C 83% 4.6 mph NNW7.4 kmh NNW 6.9 mph11.1 kmh 30.03 in1016.9 mb - 0.00 in0.0 mm 0.00 in0.0 mm
07:40 AM 60.2°F15.7°C 54.0°F12.2°C 80% 4.6 mph NNW7.4 kmh NNW 6.9 mph11.1 kmh 30.03 in1016.9 mb - 0.00 in0.0 mm 0.00 in0.0 mm
07:50 AM 61.4°F16.3°C 54.2°F12.3°C 77% 1.2 mph N1.9 kmh N 9.2 mph14.8 kmh 30.03 in1016.9 mb - 0.00 in0.0 mm 0.00 in0.0 mm
08:00 AM 62.5°F16.9°C 54.1°F12.3°C 74% 4.6 mph NW7.4 kmh NW 8.1 mph13.0 kmh 30.03 in1016.9 mb - 0.00 in0.0 mm 0.00 in0.0 mm
08:10 AM 63.2°F17.3°C 54.0°F12.2°C 72% 5.8 mph NNW9.3 kmh NNW 6.9 mph11.1 kmh 30.04 in1017.3 mb - 0.00 in0.0 mm 0.00 in0.0 mm
08:20 AM 62.9°F17.2°C 53.7°F12.1°C 72% 3.5 mph NW5.6 kmh NW 5.8 mph9.3 kmh 30.03 in1016.9 mb - 0.00 in0.0 mm 0.00 in0.0 mm
08:30 AM 62.7°F17.1°C 53.5°F11.9°C 72% 5.8 mph NNW9.3 kmh NNW 8.1 mph13.0 kmh 30.04 in1017.3 mb - 0.00 in0.0 mm 0.00 in0.0 mm
08:40 AM 62.8°F17.1°C 54.0°F12.2°C 73% 3.5 mph N5.6 kmh N 10.4 mph16.7 kmh 30.04 in1017.3 mb - 0.00 in0.0 mm 0.00 in0.0 mm
08:50 AM 62.8°F17.1°C 54.0°F12.2°C 73% 2.3 mph NNW3.7 kmh NNW 8.1 mph13.0 kmh 30.04 in1017.3 mb - 0.00 in0.0 mm 0.00 in0.0 mm
09:00 AM 63.4°F17.4°C 54.9°F12.7°C 74% 4.6 mph NNW7.4 kmh NNW 8.1 mph13.0 kmh 30.04 in1017.3 mb - 0.00 in0.0 mm 0.00 in0.0 mm
09:10 AM 63.6°F17.6°C 54.8°F12.7°C 73% 4.6 mph NNW7.4 kmh NNW 6.9 mph11.1 kmh 30.04 in1017.3 mb - 0.00 in0.0 mm 0.00 in0.0 mm
09:20 AM 63.9°F17.7°C 55.4°F13.0°C 74% 5.8 mph NW9.3 kmh NW 9.2 mph14.8 kmh 30.04 in1017.3 mb - 0.00 in0.0 mm 0.00 in0.0 mm
09:30 AM 64.6°F18.1°C 55.3°F12.9°C 72% 4.6 mph NNW7.4 kmh NNW 6.9 mph11.1 kmh 30.04 in1017.3 mb - 0.00 in0.0 mm 0.00 in0.0 mm
09:40 AM 65.7°F18.7°C 56.1°F13.4°C 71% 3.5 mph N5.6 kmh N 8.1 mph13.0 kmh 30.04 in1017.3 mb - 0.00 in0.0 mm 0.00 in0.0 mm
09:50 AM 66.4°F19.1°C 55.9°F13.3°C 69% 4.6 mph NW7.4 kmh NW 6.9 mph11.1 kmh 30.04 in1017.3 mb - 0.00 in0.0 mm 0.00 in0.0 mm
10:00 AM 67.0°F19.4°C 56.1°F13.4°C 68% 4.6 mph NW7.4 kmh NW 5.8 mph9.3 kmh 30.04 in1017.3 mb - 0.00 in0.0 mm 0.00 in0.0 mm
10:10 AM 67.9°F19.9°C 56.5°F13.6°C 67% 6.9 mph N11.1 kmh N 8.1 mph13.0 kmh 30.04 in1017.3 mb - 0.00 in0.0 mm 0.00 in0.0 mm
10:20 AM 68.7°F20.4°C 56.9°F13.8°C 66% 4.6 mph NNW7.4 kmh NNW 5.8 mph9.3 kmh 30.04 in1017.3 mb - 0.00 in0.0 mm 0.00 in0.0 mm
10:30 AM 69.5°F20.8°C 56.3°F13.5°C 63% 5.8 mph N9.3 kmh N 10.4 mph16.7 kmh 30.04 in1017.3 mb - 0.00 in0.0 mm 0.00 in0.0 mm
10:40 AM 70.1°F21.2°C 55.6°F13.1°C 60% 2.3 mph NW3.7 kmh NW 6.9 mph11.1 kmh 30.04 in1017.3 mb - 0.00 in0.0 mm 0.00 in0.0 mm
10:50 AM 70.0°F21.1°C 57.3°F14.1°C 64% 4.6 mph NW7.4 kmh NW 8.1 mph13.0 kmh 30.04 in1017.3 mb - 0.00 in0.0 mm 0.00 in0.0 mm
11:00 AM 70.0°F21.1°C 56.4°F13.6°C 62% 3.5 mph NW5.6 kmh NW 4.6 mph7.4 kmh 30.04 in1017.3 mb - 0.00 in0.0 mm 0.00 in0.0 mm
11:10 AM 70.8°F21.6°C 57.1°F13.9°C 62% 6.9 mph N11.1 kmh N 11.5 mph18.5 kmh 30.05 in1017.6 mb - 0.00 in0.0 mm 0.00 in0.0 mm
11:20 AM 70.3°F21.3°C 54.8°F12.7°C 58% 3.5 mph NNW5.6 kmh NNW 6.9 mph11.1 kmh 30.05 in1017.6 mb - 0.00 in0.0 mm 0.00 in0.0 mm
11:30 AM 70.7°F21.5°C 57.0°F13.9°C 62% 6.9 mph N11.1 kmh N 9.2 mph14.8 kmh 30.05 in1017.6 mb - 0.00 in0.0 mm 0.00 in0.0 mm
11:40 AM 70.9°F21.6°C 56.3°F13.5°C 60% 5.8 mph N9.3 kmh N 11.5 mph18.5 kmh 30.04 in1017.3 mb - 0.00 in0.0 mm 0.00 in0.0 mm
11:50 AM 70.9°F21.6°C 55.8°F13.2°C 59% 4.6 mph NNE7.4 kmh NNE 8.1 mph13.0 kmh 30.05 in1017.6 mb - 0.00 in0.0 mm 0.00 in0.0 mm
12:00 PM 71.4°F21.9°C 55.4°F13.0°C 57% 3.5 mph NW5.6 kmh NW 4.6 mph7.4 kmh 30.04 in1017.3 mb - 0.00 in0.0 mm 0.00 in0.0 mm
12:10 PM 71.2°F21.8°C 55.7°F13.2°C 58% 3.5 mph NNW5.6 kmh NNW 6.9 mph11.1 kmh 30.04 in1017.3 mb - 0.00 in0.0 mm 0.00 in0.0 mm
12:20 PM 71.0°F21.7°C 55.4°F13.0°C 58% 4.6 mph NW7.4 kmh NW 6.9 mph11.1 kmh 30.04 in1017.3 mb - 0.00 in0.0 mm 0.00 in0.0 mm
12:30 PM 71.2°F21.8°C 54.7°F12.6°C 56% 4.6 mph N7.4 kmh N 6.9 mph11.1 kmh 30.04 in1017.3 mb - 0.00 in0.0 mm 0.00 in0.0 mm
12:40 PM 72.0°F22.2°C 54.4°F12.4°C 54% 3.5 mph NNW5.6 kmh NNW 5.8 mph9.3 kmh 30.04 in1017.3 mb - 0.00 in0.0 mm 0.00 in0.0 mm
12:50 PM 72.7°F22.6°C 54.0°F12.2°C 52% 3.5 mph NW5.6 kmh NW 9.2 mph14.8 kmh 30.04 in1017.3 mb - 0.00 in0.0 mm 0.00 in0.0 mm
01:00 PM 73.0°F22.8°C 52.7°F11.5°C 49% 4.6 mph NNW7.4 kmh NNW 9.2 mph14.8 kmh 30.04 in1017.3 mb - 0.00 in0.0 mm 0.00 in0.0 mm
01:10 PM 73.1°F22.8°C 52.8°F11.6°C 49% 6.9 mph NNW11.1 kmh NNW 11.5 mph18.5 kmh 30.04 in1017.3 mb - 0.00 in0.0 mm 0.00 in0.0 mm
01:20 PM 72.9°F22.7°C 51.5°F10.8°C 47% 8.1 mph NE13.0 kmh NE 11.5 mph18.5 kmh 30.04 in1017.3 mb - 0.00 in0.0 mm 0.00 in0.0 mm
01:30 PM 73.2°F22.9°C 52.4°F11.3°C 48% 4.6 mph N7.4 kmh N 6.9 mph11.1 kmh 30.04 in1017.3 mb - 0.00 in0.0 mm 0.00 in0.0 mm
01:40 PM 73.7°F23.2°C 51.0°F10.6°C 45% 3.5 mph NNE5.6 kmh NNE 9.2 mph14.8 kmh 30.04 in1017.3 mb - 0.00 in0.0 mm 0.00 in0.0 mm
01:50 PM 73.8°F23.2°C 53.4°F11.9°C 49% 3.5 mph N5.6 kmh N 9.2 mph14.8 kmh 30.04 in1017.3 mb - 0.00 in0.0 mm 0.00 in0.0 mm
02:00 PM 73.8°F23.2°C 52.9°F11.6°C 48% 6.9 mph NNW11.1 kmh NNW 11.5 mph18.5 kmh 30.04 in1017.3 mb - 0.00 in0.0 mm 0.00 in0.0 mm
02:10 PM 73.9°F23.3°C 52.9°F11.6°C 48% 4.6 mph NNE7.4 kmh NNE 9.2 mph14.8 kmh 30.04 in1017.3 mb - 0.00 in0.0 mm 0.00 in0.0 mm
02:20 PM 74.0°F23.3°C 52.5°F11.4°C 47% 3.5 mph N5.6 kmh N 6.9 mph11.1 kmh 30.04 in1017.3 mb - 0.00 in0.0 mm 0.00 in0.0 mm
02:30 PM 74.4°F23.6°C 53.4°F11.9°C 48% 6.9 mph NNW11.1 kmh NNW 9.2 mph14.8 kmh 30.04 in1017.3 mb - 0.00 in0.0 mm 0.00 in0.0 mm
02:40 PM 74.5°F23.6°C 53.6°F12.0°C 48% 3.5 mph NNE5.6 kmh NNE 6.9 mph11.1 kmh 30.04 in1017.3 mb - 0.00 in0.0 mm 0.00 in0.0 mm
02:50 PM 74.2°F23.4°C 52.1°F11.2°C 46% 3.5 mph NNE5.6 kmh NNE 4.6 mph7.4 kmh 30.04 in1017.3 mb - 0.00 in0.0 mm 0.00 in0.0 mm
03:00 PM 74.1°F23.4°C 53.2°F11.8°C 48% 6.9 mph NNE11.1 kmh NNE 11.5 mph18.5 kmh 30.04 in1017.3 mb - 0.00 in0.0 mm 0.00 in0.0 mm
03:10 PM 74.4°F23.6°C 54.0°F12.2°C 49% 3.5 mph NNW5.6 kmh NNW 4.6 mph7.4 kmh 30.04 in1017.3 mb - 0.00 in0.0 mm 0.00 in0.0 mm
03:20 PM 74.9°F23.8°C 53.3°F11.8°C 47% 5.8 mph N9.3 kmh N 10.4 mph16.7 kmh 30.04 in1017.3 mb - 0.00 in0.0 mm 0.00 in0.0 mm
03:30 PM 74.3°F23.5°C 54.4°F12.4°C 50% 5.8 mph NNW9.3 kmh NNW 9.2 mph14.8 kmh 30.04 in1017.3 mb - 0.00 in0.0 mm 0.00 in0.0 mm
03:40 PM 73.8°F23.2°C 54.0°F12.2°C 50% 5.8 mph N9.3 kmh N 8.1 mph13.0 kmh 30.04 in1017.3 mb - 0.00 in0.0 mm 0.00 in0.0 mm
03:50 PM 73.0°F22.8°C 54.9°F12.7°C 53% 2.3 mph NE3.7 kmh NE 6.9 mph11.1 kmh 30.04 in1017.3 mb - 0.00 in0.0 mm 0.00 in0.0 mm
04:00 PM 72.7°F22.6°C 54.0°F12.2°C 52% 1.2 mph N1.9 kmh N 4.6 mph7.4 kmh 30.04 in1017.3 mb - 0.00 in0.0 mm 0.00 in0.0 mm
04:10 PM 72.9°F22.7°C 54.2°F12.3°C 52% 4.6 mph N7.4 kmh N 8.1 mph13.0 kmh 30.04 in1017.3 mb - 0.00 in0.0 mm 0.00 in0.0 mm
04:20 PM 72.4°F22.4°C 54.3°F12.4°C 53% 2.3 mph N3.7 kmh N 6.9 mph11.1 kmh 30.04 in1017.3 mb - 0.00 in0.0 mm 0.00 in0.0 mm
04:30 PM 72.5°F22.5°C 54.4°F12.4°C 53% 2.3 mph N3.7 kmh N 6.9 mph11.1 kmh 30.04 in1017.3 mb - 0.00 in0.0 mm 0.00 in0.0 mm
04:40 PM 72.5°F22.5°C 54.4°F12.4°C 53% 3.5 mph NNE5.6 kmh NNE 6.9 mph11.1 kmh 30.04 in1017.3 mb - 0.00 in0.0 mm 0.00 in0.0 mm
04:50 PM 72.0°F22.2°C 53.9°F12.2°C 53% 4.6 mph NE7.4 kmh NE 8.1 mph13.0 kmh 30.05 in1017.6 mb - 0.00 in0.0 mm 0.00 in0.0 mm
05:00 PM 71.6°F22.0°C 54.6°F12.6°C 55% 3.5 mph NE5.6 kmh NE 8.1 mph13.0 kmh 30.05 in1017.6 mb - 0.00 in0.0 mm 0.00 in0.0 mm
05:10 PM 71.8°F22.1°C 54.8°F12.7°C 55% 2.3 mph NE3.7 kmh NE 5.8 mph9.3 kmh 30.05 in1017.6 mb - 0.00 in0.0 mm 0.00 in0.0 mm
05:20 PM 71.8°F22.1°C 54.3°F12.4°C 54% 2.3 mph NE3.7 kmh NE 3.5 mph5.6 kmh 30.05 in1017.6 mb - 0.00 in0.0 mm 0.00 in0.0 mm
05:30 PM 71.4°F21.9°C 53.9°F12.2°C 54% 3.5 mph NNE5.6 kmh NNE 4.6 mph7.4 kmh 30.05 in1017.6 mb - 0.00 in0.0 mm 0.00 in0.0 mm
05:40 PM 71.2°F21.8°C 54.2°F12.3°C 55% 3.5 mph N5.6 kmh N 4.6 mph7.4 kmh 30.05 in1017.6 mb - 0.00 in0.0 mm 0.00 in0.0 mm
05:50 PM 70.8°F21.6°C 54.8°F12.7°C 57% 3.5 mph N5.6 kmh N 5.8 mph9.3 kmh 30.05 in1017.6 mb - 0.00 in0.0 mm 0.00 in0.0 mm
06:00 PM 70.4°F21.3°C 54.9°F12.7°C 58% 3.5 mph N5.6 kmh N 6.9 mph11.1 kmh 30.05 in1017.6 mb - 0.00 in0.0 mm 0.00 in0.0 mm
06:10 PM 70.3°F21.3°C 54.8°F12.7°C 58% 4.6 mph N7.4 kmh N 8.1 mph13.0 kmh 30.06 in1017.9 mb - 0.00 in0.0 mm 0.00 in0.0 mm
06:20 PM 70.1°F21.2°C 54.6°F12.6°C 58% 3.5 mph NNW5.6 kmh NNW 8.1 mph13.0 kmh 30.06 in1017.9 mb - 0.00 in0.0 mm 0.00 in0.0 mm
06:30 PM 69.8°F21.0°C 54.9°F12.7°C 59% 2.3 mph N3.7 kmh N 4.6 mph7.4 kmh 30.06 in1017.9 mb - 0.00 in0.0 mm 0.00 in0.0 mm
06:40 PM 69.5°F20.8°C 54.5°F12.5°C 59% 1.2 mph NNW1.9 kmh NNW 3.5 mph5.6 kmh 30.06 in1017.9 mb - 0.00 in0.0 mm 0.00 in0.0 mm
06:50 PM 69.1°F20.6°C 55.1°F12.8°C 61% Calm Calm 1.2 mph1.9 kmh 30.07 in1018.3 mb - 0.00 in0.0 mm 0.00 in0.0 mm
07:00 PM 68.5°F20.3°C 55.8°F13.2°C 64% 1.2 mph NW1.9 kmh NW 2.3 mph3.7 kmh 30.07 in1018.3 mb - 0.00 in0.0 mm 0.00 in0.0 mm
07:10 PM 67.5°F19.7°C 55.7°F13.2°C 66% 1.2 mph NW1.9 kmh NW 5.8 mph9.3 kmh 30.07 in1018.3 mb - 0.00 in0.0 mm 0.00 in0.0 mm
07:20 PM 66.6°F19.2°C 55.3°F12.9°C 67% Calm Calm 1.2 mph1.9 kmh 30.08 in1018.6 mb - 0.00 in0.0 mm 0.00 in0.0 mm
07:30 PM 66.0°F18.9°C 55.1°F12.8°C 68% Calm Calm 3.5 mph5.6 kmh 30.08 in1018.6 mb - 0.00 in0.0 mm 0.00 in0.0 mm
07:40 PM 65.5°F18.6°C 55.0°F12.8°C 69% 1.2 mph NW1.9 kmh NW 3.5 mph5.6 kmh 30.08 in1018.6 mb - 0.00 in0.0 mm 0.00 in0.0 mm
07:50 PM 65.1°F18.4°C 54.6°F12.6°C 69% 1.2 mph NW1.9 kmh NW 4.6 mph7.4 kmh 30.09 in1019.0 mb - 0.00 in0.0 mm 0.00 in0.0 mm
08:00 PM 64.7°F18.2°C 54.7°F12.6°C 70% 3.5 mph NW5.6 kmh NW 4.6 mph7.4 kmh 30.09 in1019.0 mb - 0.00 in0.0 mm 0.00 in0.0 mm
08:30 PM 63.9°F17.7°C 53.9°F12.2°C 70% 1.2 mph NW1.9 kmh NW 3.5 mph5.6 kmh 30.10 in1019.3 mb - 0.00 in0.0 mm 0.00 in0.0 mm
08:40 PM 63.5°F17.5°C 53.9°F12.2°C 71% Calm Calm -- 30.11 in1019.6 mb - 0.00 in0.0 mm 0.00 in0.0 mm
08:50 PM 63.1°F17.3°C 53.5°F11.9°C 71% 2.3 mph NNW3.7 kmh NNW 4.6 mph7.4 kmh 30.11 in1019.6 mb - 0.00 in0.0 mm 0.00 in0.0 mm
09:00 PM 62.8°F17.1°C 53.3°F11.8°C 71% 2.3 mph NNW3.7 kmh NNW 4.6 mph7.4 kmh 30.12 in1020.0 mb - 0.00 in0.0 mm 0.00 in0.0 mm
09:10 PM 62.5°F16.9°C 53.3°F11.8°C 72% Calm Calm -- 30.12 in1020.0 mb - 0.00 in0.0 mm 0.00 in0.0 mm
09:20 PM 62.1°F16.7°C 53.0°F11.7°C 72% Calm Calm 2.3 mph3.7 kmh 30.12 in1020.0 mb - 0.00 in0.0 mm 0.00 in0.0 mm
09:30 PM 61.8°F16.6°C 52.7°F11.5°C 72% 1.2 mph N1.9 kmh N 3.5 mph5.6 kmh 30.13 in1020.3 mb - 0.00 in0.0 mm 0.00 in0.0 mm
09:40 PM 61.6°F16.4°C 52.8°F11.6°C 73% Calm Calm 2.3 mph3.7 kmh 30.13 in1020.3 mb - 0.00 in0.0 mm 0.00 in0.0 mm
09:50 PM 61.3°F16.3°C 52.6°F11.4°C 73% Calm Calm -- 30.13 in1020.3 mb - 0.00 in0.0 mm 0.00 in0.0 mm
10:00 PM 61.0°F16.1°C 52.3°F11.3°C 73% Calm Calm -- 30.14 in1020.7 mb - 0.00 in0.0 mm 0.00 in0.0 mm
10:10 PM 60.6°F15.9°C 52.3°F11.3°C 74% Calm Calm -- 30.14 in1020.7 mb - 0.00 in0.0 mm 0.00 in0.0 mm
10:20 PM 60.4°F15.8°C 52.0°F11.1°C 74% Calm Calm -- 30.14 in1020.7 mb - 0.00 in0.0 mm 0.00 in0.0 mm
10:30 PM 60.2°F15.7°C 51.9°F11.1°C 74% Calm Calm -- 30.14 in1020.7 mb - 0.00 in0.0 mm 0.00 in0.0 mm
10:40 PM 59.8°F15.4°C 51.5°F10.8°C 74% Calm Calm -- 30.14 in1020.7 mb - 0.00 in0.0 mm 0.00 in0.0 mm
10:50 PM 59.5°F15.3°C 51.5°F10.8°C 75% Calm Calm -- 30.15 in1021.0 mb - 0.00 in0.0 mm 0.00 in0.0 mm
11:00 PM 59.3°F15.2°C 51.3°F10.7°C 75% Calm Calm -- 30.15 in1021.0 mb - 0.00 in0.0 mm 0.00 in0.0 mm
11:10 PM 59.0°F15.0°C 51.1°F10.6°C 75% 1.2 mph N1.9 kmh N 4.6 mph7.4 kmh 30.15 in1021.0 mb - 0.00 in0.0 mm 0.00 in0.0 mm
11:20 PM 58.6°F14.8°C 50.3°F10.2°C 74% 1.2 mph N1.9 kmh N 4.6 mph7.4 kmh 30.15 in1021.0 mb - 0.00 in0.0 mm 0.00 in0.0 mm
11:30 PM 58.3°F14.6°C 50.1°F10.1°C 74% Calm Calm -- 30.15 in1021.0 mb - 0.00 in0.0 mm 0.00 in0.0 mm
11:40 PM 58.0°F14.4°C 49.8°F9.9°C 74% Calm Calm -- 30.16 in1021.3 mb - 0.00 in0.0 mm 0.00 in0.0 mm
11:50 PM 57.7°F14.3°C 49.5°F9.7°C 74% Calm Calm 3.5 mph5.6 kmh 30.16 in1021.3 mb - 0.00 in0.0 mm 0.00 in0.0 mm